createdAt,value
2018-04-23T00:00:53.593Z,7.50
2018-04-23T00:03:21.108Z,7.47
2018-04-23T00:05:48.650Z,7.50
2018-04-23T00:08:16.934Z,7.33
2018-04-23T00:10:45.233Z,7.30
2018-04-23T00:13:12.740Z,7.83
2018-04-23T00:15:40.259Z,7.47
2018-04-23T00:18:07.792Z,7.20
2018-04-23T00:20:36.076Z,6.90
2018-04-23T00:23:03.627Z,6.80
2018-04-23T00:25:31.147Z,7.93
2018-04-23T00:27:58.719Z,8.20
2018-04-23T00:30:26.200Z,7.20
2018-04-23T00:32:54.499Z,7.80
2018-04-23T00:35:22.013Z,7.70
2018-04-23T00:37:49.554Z,6.57
2018-04-23T00:40:17.063Z,7.20
2018-04-23T00:42:45.363Z,7.73
2018-04-23T00:45:12.876Z,7.20
2018-04-23T00:47:40.403Z,8.00
2018-04-23T00:50:07.912Z,7.17
2018-04-23T00:52:36.215Z,7.47
2018-04-23T00:55:03.731Z,7.77
2018-04-23T00:57:31.265Z,7.10
2018-04-23T00:59:58.777Z,8.23
2018-04-23T01:02:27.084Z,7.10
2018-04-23T01:04:54.608Z,7.00
2018-04-23T01:07:22.880Z,7.10
2018-04-23T01:09:51.172Z,7.10
2018-04-23T01:12:19.452Z,7.73
2018-04-23T01:14:46.986Z,6.70
2018-04-23T01:17:14.500Z,8.00
2018-04-23T01:19:42.038Z,7.33
2018-04-23T01:22:09.552Z,7.30
2018-04-23T01:24:37.088Z,7.80
2018-04-23T01:27:04.599Z,7.90
2018-04-23T01:29:32.900Z,7.50
2018-04-23T01:32:00.416Z,7.33
2018-04-23T01:34:28.023Z,7.00
2018-04-23T01:36:55.533Z,6.40
2018-04-23T01:39:23.064Z,8.13
2018-04-23T01:41:50.578Z,5.90
2018-04-23T01:44:18.879Z,6.50
2018-04-23T01:46:46.397Z,6.87
2018-04-23T01:49:13.928Z,6.40
2018-04-23T01:51:41.444Z,6.10
2018-04-23T01:54:08.975Z,5.93
2018-04-23T01:56:36.483Z,6.50
2018-04-23T01:59:04.020Z,7.17
2018-04-23T02:01:32.318Z,7.20
2018-04-23T02:03:59.836Z,6.90
2018-04-23T02:06:27.368Z,7.27
2018-04-23T02:08:54.884Z,7.70
2018-04-23T02:11:22.411Z,7.10
2018-04-23T02:13:49.919Z,6.43
2018-04-23T02:16:17.451Z,7.50
2018-04-23T02:18:45.732Z,8.10
2018-04-23T02:21:13.264Z,8.20
2018-04-23T02:23:41.571Z,8.60
2018-04-23T02:26:09.107Z,7.80
2018-04-23T02:28:36.625Z,7.73
2018-04-23T02:31:04.165Z,7.40
2018-04-23T02:33:31.691Z,7.53
2018-04-23T02:35:59.993Z,7.77
2018-04-23T02:38:27.505Z,7.60
2018-04-23T02:40:55.040Z,6.80
2018-04-23T02:43:22.552Z,7.40
2018-04-23T02:45:50.851Z,7.53
2018-04-23T02:48:18.364Z,7.27
2018-04-23T02:50:45.916Z,6.43
2018-04-23T02:53:13.432Z,7.07
2018-04-23T02:55:40.967Z,7.30
2018-04-23T02:58:09.255Z,8.67
2018-04-23T03:00:37.536Z,8.20
2018-04-23T03:03:05.075Z,8.10
2018-04-23T03:05:33.365Z,8.10
2018-04-23T03:08:01.675Z,7.73
2018-04-23T03:10:29.191Z,8.20
2018-04-23T03:12:57.497Z,8.13
2018-04-23T03:15:25.012Z,7.60
2018-04-23T03:17:52.640Z,8.00
2018-04-23T03:20:20.152Z,7.90
2018-04-23T03:22:48.453Z,8.90
2018-04-23T03:25:16.031Z,7.40
2018-04-23T03:27:43.572Z,7.00
2018-04-23T03:30:11.122Z,7.63
2018-04-23T03:32:39.403Z,7.97
2018-04-23T03:35:07.712Z,7.17
2018-04-23T03:37:35.224Z,6.77
2018-04-23T03:40:03.755Z,7.63
2018-04-23T03:42:31.267Z,7.50
2018-04-23T03:44:59.585Z,7.87
2018-04-23T03:47:27.116Z,7.73
2018-04-23T03:49:55.423Z,8.23
2018-04-23T03:52:22.941Z,7.97
2018-04-23T03:54:51.245Z,7.80
2018-04-23T03:57:18.823Z,7.20
2018-04-23T03:59:46.357Z,7.27
2018-04-23T04:02:14.644Z,8.70
2018-04-23T04:04:42.224Z,7.87
2018-04-23T04:07:09.740Z,8.60
2018-04-23T04:09:38.039Z,8.20
2018-04-23T04:12:17.530Z,7.83
2018-04-23T04:14:56.935Z,9.43
2018-04-23T04:20:33.960Z,8.23
2018-04-23T04:23:01.476Z,9.13
2018-04-23T04:25:29.781Z,8.60
2018-04-23T04:27:57.340Z,9.17
2018-04-23T04:30:24.877Z,8.83
2018-04-23T04:32:52.392Z,8.07
2018-04-23T04:35:19.943Z,7.93
2018-04-23T04:37:47.465Z,7.87
2018-04-23T04:40:14.984Z,8.33
2018-04-23T04:42:42.517Z,8.30
2018-04-23T04:45:10.032Z,8.67
2018-04-23T04:47:38.342Z,8.13
2018-04-23T04:50:05.852Z,8.23
2018-04-23T04:52:34.156Z,8.47
2018-04-23T04:55:01.677Z,7.83
2018-04-23T04:57:29.219Z,9.80
2018-04-23T04:59:56.741Z,8.93
2018-04-23T05:02:24.276Z,8.70
2018-04-23T05:04:52.569Z,10.40
2018-04-23T05:07:20.103Z,8.97
2018-04-23T05:09:48.384Z,8.20
2018-04-23T05:12:16.681Z,8.23
2018-04-23T05:14:44.208Z,8.50
2018-04-23T05:17:11.743Z,8.13
2018-04-23T05:19:39.259Z,8.90
2018-04-23T05:22:06.791Z,7.80
2018-04-23T05:24:34.409Z,8.23
2018-04-23T05:27:01.961Z,7.70
2018-04-23T05:29:29.528Z,9.10
2018-04-23T05:31:57.069Z,8.23
2018-04-23T05:34:24.585Z,8.07
2018-04-23T05:36:52.140Z,8.10
2018-04-23T05:39:19.672Z,8.30
2018-04-23T05:41:47.207Z,9.30
2018-04-23T05:44:14.753Z,9.30
2018-04-23T05:46:42.285Z,9.50
2018-04-23T05:49:10.589Z,7.33
2018-04-23T05:51:38.879Z,8.40
2018-04-23T05:54:06.422Z,7.47
2018-04-23T05:56:34.705Z,7.27
2018-04-23T05:59:03.009Z,7.60
2018-04-23T06:01:30.530Z,7.97
2018-04-23T06:03:58.828Z,7.60
2018-04-23T06:06:26.343Z,8.37
2018-04-23T06:08:53.928Z,9.17
2018-04-23T06:11:21.416Z,7.50
2018-04-23T06:13:48.949Z,7.80
2018-04-23T06:16:17.236Z,8.97
2018-04-23T06:18:45.537Z,8.80
2018-04-23T06:21:13.061Z,9.80
2018-04-23T06:23:41.374Z,9.43
2018-04-23T06:26:08.892Z,9.50
2018-04-23T06:28:36.429Z,9.23
2018-04-23T06:31:03.947Z,8.90
2018-04-23T06:33:31.505Z,8.43
2018-04-23T06:35:59.077Z,9.23
2018-04-23T06:38:26.641Z,8.93
2018-04-23T06:40:54.184Z,10.40
2018-04-23T06:43:21.720Z,10.07
2018-04-23T06:45:50.049Z,8.57
2018-04-23T06:48:17.571Z,8.73
2018-04-23T06:50:45.878Z,10.27
2018-04-23T06:53:13.398Z,9.10
2018-04-23T06:55:41.709Z,9.27
2018-04-23T06:58:09.238Z,8.80
2018-04-23T07:00:37.553Z,10.00
2018-04-23T07:03:05.073Z,8.33
2018-04-23T07:05:33.375Z,8.17
2018-04-23T07:08:00.948Z,8.40
2018-04-23T07:10:28.536Z,9.20
2018-04-23T07:12:56.021Z,8.33
2018-04-23T07:15:23.544Z,9.27
2018-04-23T07:17:51.079Z,11.43
2018-04-23T07:20:18.596Z,10.70
2018-04-23T07:22:46.136Z,9.67
2018-04-23T07:25:13.654Z,10.10
2018-04-23T07:27:41.188Z,8.47
2018-04-23T07:30:09.477Z,8.30
2018-04-23T07:32:37.068Z,9.10
2018-04-23T07:35:04.592Z,9.03
2018-04-23T07:37:32.899Z,7.83
2018-04-23T07:40:00.416Z,8.00
2018-04-23T07:42:27.959Z,8.57
2018-04-23T07:44:55.475Z,8.80
2018-04-23T07:47:23.021Z,9.20
2018-04-23T07:49:50.541Z,8.77
2018-04-23T07:52:18.082Z,7.70
2018-04-23T07:54:45.599Z,6.70
2018-04-23T07:57:13.158Z,7.07
2018-04-23T07:59:40.677Z,7.60
2018-04-23T08:02:08.212Z,7.33
2018-04-23T08:04:35.729Z,8.33
2018-04-23T08:07:04.055Z,7.47
2018-04-23T08:09:31.568Z,7.73
2018-04-23T08:11:59.881Z,8.07
2018-04-23T08:14:27.420Z,8.03
2018-04-23T08:16:54.936Z,7.57
2018-04-23T08:19:22.496Z,7.70
2018-04-23T08:21:50.011Z,8.00
2018-04-23T08:24:17.549Z,7.20
2018-04-23T08:26:45.073Z,7.60
2018-04-23T08:29:12.608Z,7.60
2018-04-23T08:31:40.124Z,7.87
2018-04-23T08:34:08.433Z,8.00
2018-04-23T08:36:35.952Z,7.90
2018-04-23T08:39:04.254Z,7.80
2018-04-23T08:41:31.832Z,7.90
2018-04-23T08:43:59.386Z,8.50
2018-04-23T08:46:26.916Z,7.47
2018-04-23T08:48:55.357Z,6.90
2018-04-23T08:51:22.880Z,7.23
2018-04-23T08:53:50.400Z,7.43
2018-04-23T08:56:17.942Z,8.00
2018-04-23T08:58:45.459Z,7.13
2018-04-23T09:01:12.999Z,7.27
2018-04-23T09:03:41.280Z,6.97
2018-04-23T09:06:09.592Z,7.87
2018-04-23T09:08:37.149Z,8.53
2018-04-23T09:11:04.709Z,7.20
2018-04-23T09:13:32.230Z,9.07
2018-04-23T09:16:00.543Z,7.47
2018-04-23T09:18:28.066Z,7.73
2018-04-23T09:20:56.357Z,7.60
2018-04-23T09:23:23.897Z,8.13
2018-04-23T09:25:52.180Z,7.00
2018-04-23T09:28:20.493Z,8.20
2018-04-23T09:30:48.012Z,7.20
2018-04-23T09:33:16.335Z,9.80
2018-04-23T09:35:43.857Z,8.63
2018-04-23T09:38:12.161Z,7.90
2018-04-23T09:40:39.678Z,6.90
2018-04-23T09:43:07.220Z,7.33
2018-04-23T09:45:34.737Z,8.30
2018-04-23T09:48:02.280Z,8.60
2018-04-23T09:50:30.593Z,8.50
2018-04-23T09:52:58.137Z,8.30
2018-04-23T09:55:25.718Z,8.93
2018-04-23T09:57:53.262Z,8.30
2018-04-23T10:00:26.557Z,9.23
2018-04-23T10:02:54.097Z,9.10
2018-04-23T10:05:22.384Z,8.43
2018-04-23T10:07:49.959Z,8.90
2018-04-23T10:10:17.480Z,7.60
2018-04-23T10:12:45.790Z,9.30
2018-04-23T10:15:13.315Z,8.50
2018-04-23T10:17:41.641Z,8.80
2018-04-23T10:20:09.160Z,8.63
2018-04-23T10:22:37.440Z,7.50
2018-04-23T10:25:05.751Z,8.47
2018-04-23T10:27:33.272Z,7.47
2018-04-23T10:30:01.577Z,7.60
2018-04-23T10:32:29.098Z,8.10
2018-04-23T10:34:57.414Z,7.20
2018-04-23T10:37:24.931Z,8.80
2018-04-23T10:39:52.478Z,8.60
2018-04-23T10:42:19.993Z,7.67
2018-04-23T10:44:47.533Z,7.80
2018-04-23T10:47:15.816Z,8.17
2018-04-23T10:49:44.122Z,8.20
2018-04-23T10:52:11.649Z,7.87
2018-04-23T10:54:39.953Z,6.97
2018-04-23T10:57:07.476Z,8.27
2018-04-23T10:59:35.784Z,7.67
2018-04-23T11:02:03.305Z,7.40
2018-04-23T11:04:30.845Z,6.50
2018-04-23T11:06:58.361Z,6.57
2018-04-23T11:09:25.888Z,6.90
2018-04-23T11:11:54.197Z,6.27
2018-04-23T11:14:21.716Z,6.77
2018-04-23T11:16:49.262Z,6.43
2018-04-23T11:19:16.785Z,7.10
2018-04-23T11:21:44.329Z,7.70
2018-04-23T11:24:11.849Z,6.53
2018-04-23T11:26:39.393Z,6.93
2018-04-23T11:29:06.917Z,7.43
2018-04-23T11:31:34.497Z,8.60
2018-04-23T11:34:02.021Z,7.57
2018-04-23T11:36:29.568Z,7.73
2018-04-23T11:38:58.684Z,6.73
2018-04-23T11:41:26.221Z,8.37
2018-04-23T11:43:54.548Z,6.60
2018-04-23T11:46:22.083Z,6.80
2018-04-23T11:48:49.605Z,6.00
2018-04-23T11:51:17.144Z,6.87
2018-04-23T11:53:44.664Z,7.80
2018-04-23T11:56:12.209Z,8.47
2018-04-23T11:58:40.496Z,7.00
2018-04-23T12:01:08.804Z,6.03
2018-04-23T12:03:36.341Z,7.00
2018-04-23T12:06:03.856Z,7.57
2018-04-23T12:08:31.398Z,6.43
2018-04-23T12:10:58.919Z,6.30
2018-04-23T12:13:26.470Z,7.90
2018-04-23T12:15:54.753Z,5.70
2018-04-23T12:18:22.291Z,7.53
2018-04-23T12:20:50.580Z,6.30
2018-04-23T12:23:18.884Z,7.50
2018-04-23T12:25:46.406Z,6.50
2018-04-23T12:28:14.709Z,6.60
2018-04-23T12:30:42.289Z,6.50
2018-04-23T12:33:09.832Z,6.37
2018-04-23T12:35:37.351Z,6.33
2018-04-23T12:38:04.887Z,6.07
2018-04-23T12:40:32.407Z,6.00
2018-04-23T12:42:59.954Z,6.70
2018-04-23T12:45:28.242Z,5.47
2018-04-23T12:47:55.788Z,5.53
2018-04-23T12:50:24.077Z,6.57
2018-04-23T12:52:52.369Z,6.23
2018-04-23T12:55:19.909Z,7.23
2018-04-23T12:57:47.504Z,5.97
2018-04-23T13:00:15.040Z,5.80
2018-04-23T13:02:42.559Z,6.33
2018-04-23T13:05:10.103Z,6.80
2018-04-23T13:07:37.622Z,6.77
2018-04-23T13:10:05.156Z,7.07
2018-04-23T13:12:33.450Z,6.80
2018-04-23T13:15:01.757Z,5.97
2018-04-23T13:17:29.278Z,8.00
2018-04-23T13:19:57.581Z,6.90
2018-04-23T13:22:25.105Z,6.30
2018-04-23T13:24:52.652Z,7.63
2018-04-23T13:27:20.188Z,6.60
2018-04-23T13:29:47.735Z,7.10
2018-04-23T13:32:15.301Z,6.53
2018-04-23T13:34:42.821Z,7.27
2018-04-23T13:37:11.125Z,7.20
2018-04-23T13:39:38.641Z,6.33
2018-04-23T13:42:06.191Z,6.63
2018-04-23T13:44:33.711Z,6.60
2018-04-23T13:47:01.256Z,6.30
2018-04-23T13:49:28.777Z,6.43
2018-04-23T13:51:56.312Z,6.37
2018-04-23T13:54:23.834Z,8.10
2018-04-23T13:56:51.483Z,6.10
2018-04-23T13:59:19.772Z,6.60
2018-04-23T14:01:47.294Z,6.33
2018-04-23T14:04:14.841Z,6.27
2018-04-23T14:06:42.365Z,6.50
2018-04-23T14:09:09.901Z,6.27
2018-04-23T14:11:38.210Z,6.77
2018-04-23T14:14:05.744Z,7.37
2018-04-23T14:16:34.027Z,6.03
2018-04-23T14:19:01.560Z,6.50
2018-04-23T14:21:29.080Z,6.50
2018-04-23T14:23:56.640Z,6.17
2018-04-23T14:26:24.157Z,5.23
2018-04-23T14:28:51.709Z,3.63
2018-04-23T14:31:19.987Z,4.07
2018-04-23T14:33:48.287Z,3.97
2018-04-23T14:36:15.804Z,4.67
2018-04-23T14:38:43.345Z,4.07
2018-04-23T14:41:10.864Z,3.70
2018-04-23T14:43:38.413Z,3.80
2018-04-23T14:46:06.698Z,3.70
2018-04-23T14:48:34.256Z,4.97
2018-04-23T14:51:01.772Z,5.10
2018-04-23T14:53:29.287Z,4.90
2018-04-23T14:55:56.824Z,5.17
2018-04-23T14:58:25.103Z,6.30
2018-04-23T15:00:53.405Z,5.60
2018-04-23T15:03:20.920Z,5.17
2018-04-23T15:05:48.461Z,5.43
2018-04-23T15:08:15.984Z,5.43
2018-04-23T15:10:43.539Z,5.70
2018-04-23T15:13:11.061Z,6.43
2018-04-23T15:15:38.594Z,6.37
2018-04-23T15:18:06.117Z,6.07
2018-04-23T15:20:33.657Z,6.30
2018-04-23T15:23:01.936Z,6.17
2018-04-23T15:25:30.235Z,6.67
2018-04-23T15:27:57.748Z,6.23
2018-04-23T15:30:25.286Z,6.17
2018-04-23T15:32:52.809Z,8.17
2018-04-23T15:35:20.357Z,6.30
2018-04-23T15:37:48.649Z,6.83
2018-04-23T15:40:16.225Z,6.80
2018-04-23T15:42:43.764Z,6.20
2018-04-23T15:45:11.289Z,7.60
2018-04-23T15:47:38.825Z,5.73
2018-04-23T15:50:06.349Z,6.47
2018-04-23T15:52:33.889Z,7.23
2018-04-23T15:55:02.175Z,8.03
2018-04-23T15:57:29.707Z,7.97
2018-04-23T15:59:57.318Z,6.80
2018-04-23T16:02:24.862Z,6.20
2018-04-23T16:04:52.380Z,7.13
2018-04-23T16:07:21.421Z,5.90
2018-04-23T16:09:48.952Z,6.80
2018-04-23T16:12:17.256Z,5.20
2018-04-23T16:14:44.777Z,4.43
2018-04-23T16:17:12.312Z,5.17
2018-04-23T16:19:39.853Z,6.30
2018-04-23T16:22:07.388Z,4.97
2018-04-23T16:24:34.909Z,5.70
2018-04-23T16:27:02.457Z,5.47
2018-04-23T16:29:29.976Z,5.17
2018-04-23T16:31:57.508Z,5.47
2018-04-23T16:34:25.788Z,5.00
2018-04-23T16:36:54.092Z,5.30
2018-04-23T16:39:21.609Z,5.23
2018-04-23T16:41:49.137Z,4.70
2018-04-23T16:44:16.684Z,5.40
2018-04-23T16:46:44.200Z,5.23
2018-04-23T16:49:12.501Z,4.83
2018-04-23T16:51:40.020Z,5.90
2018-04-23T16:54:07.558Z,6.67
2018-04-23T16:56:35.072Z,6.07
2018-04-23T16:59:03.376Z,5.33
2018-04-23T17:01:30.893Z,4.67
2018-04-23T17:03:59.201Z,5.93
2018-04-23T17:06:26.725Z,5.23
2018-04-23T17:08:54.260Z,6.50
2018-04-23T17:11:21.773Z,6.67
2018-04-23T17:13:49.309Z,5.70
2018-04-23T17:16:17.593Z,6.30
2018-04-23T17:18:45.894Z,5.97
2018-04-23T17:21:13.419Z,5.30
2018-04-23T17:23:40.957Z,4.90
2018-04-23T17:26:08.474Z,6.20
2018-04-23T17:28:36.016Z,6.40
2018-04-23T17:31:04.300Z,6.17
2018-04-23T17:33:32.601Z,5.67
2018-04-23T17:36:00.165Z,5.80
2018-04-23T17:38:27.702Z,6.13
2018-04-23T17:40:55.226Z,5.70
2018-04-23T17:43:22.770Z,6.37
2018-04-23T17:45:50.308Z,6.20
2018-04-23T17:48:17.824Z,6.07
2018-04-23T17:50:46.124Z,6.53
2018-04-23T17:53:13.639Z,5.90
2018-04-23T17:55:41.178Z,5.90
2018-04-23T17:58:08.721Z,5.83
2018-04-23T18:00:36.272Z,6.87
2018-04-23T18:03:03.796Z,5.57
2018-04-23T18:05:32.102Z,6.20
2018-04-23T18:07:59.630Z,6.53
2018-04-23T18:10:27.937Z,6.23
2018-04-23T18:12:55.466Z,6.90
2018-04-23T18:15:23.006Z,5.83
2018-04-23T18:17:50.520Z,5.43
2018-04-23T18:20:18.062Z,6.20
2018-04-23T18:22:46.344Z,7.07
2018-04-23T18:25:14.645Z,5.30
2018-04-23T18:27:42.168Z,5.53
2018-04-23T18:30:10.473Z,5.13
2018-04-23T18:32:38.050Z,6.20
2018-04-23T18:35:05.633Z,6.40
2018-04-23T18:37:33.177Z,7.00
2018-04-23T18:40:00.732Z,6.70
2018-04-23T18:42:28.247Z,8.43
2018-04-23T18:44:55.780Z,7.33
2018-04-23T18:47:23.295Z,6.67
2018-04-23T18:49:50.861Z,6.00
2018-04-23T18:52:18.378Z,7.70
2018-04-23T18:54:45.889Z,7.50
2018-04-23T18:57:13.421Z,7.03
2018-04-23T18:59:41.707Z,7.60
2018-04-23T19:04:43.041Z,6.40
2018-04-23T19:07:10.574Z,6.70
2018-04-23T19:09:38.117Z,5.93
2018-04-23T19:12:05.672Z,6.60
2018-04-23T19:14:33.192Z,8.23
2018-04-23T19:17:01.500Z,7.70
2018-04-23T19:19:29.021Z,6.87
2018-04-23T19:21:56.645Z,5.97
2018-04-23T19:24:24.133Z,7.10
2018-04-23T19:26:51.669Z,5.90
2018-04-23T19:29:19.200Z,6.60
2018-04-23T19:31:46.737Z,6.43
2018-04-23T19:34:15.025Z,7.50
2018-04-23T19:36:42.565Z,6.93
2018-04-23T19:39:10.844Z,5.97
2018-04-23T19:41:39.143Z,6.53
2018-04-23T19:44:06.655Z,6.27
2018-04-23T19:46:34.192Z,6.27
2018-04-23T19:49:01.709Z,5.90
2018-04-23T19:51:30.017Z,6.07
2018-04-23T19:53:57.578Z,6.23
2018-04-23T19:56:25.139Z,6.80
2018-04-23T19:58:52.652Z,4.60
2018-04-23T20:01:20.193Z,6.63
2018-04-23T20:03:48.481Z,6.53
2018-04-23T20:06:15.995Z,6.13
2018-04-23T20:08:43.533Z,6.23
2018-04-23T20:11:11.057Z,6.70
2018-04-23T20:13:38.588Z,5.50
2018-04-23T20:16:06.104Z,5.50
2018-04-23T20:18:34.410Z,5.37
2018-04-23T20:21:01.932Z,5.00
2018-04-23T20:23:30.232Z,4.43
2018-04-23T20:25:57.814Z,3.33
2018-04-23T20:28:25.353Z,3.30
2018-04-23T20:30:52.868Z,2.80
2018-04-23T20:33:20.435Z,3.57
2018-04-23T20:35:47.941Z,4.73
2018-04-23T20:38:15.484Z,4.20
2018-04-23T20:40:43.002Z,4.30
2018-04-23T20:43:10.540Z,3.83
2018-04-23T20:45:38.052Z,4.50
2018-04-23T20:48:06.354Z,4.63
2018-04-23T20:50:33.924Z,5.60
2018-04-23T20:53:01.488Z,5.80
2018-04-23T20:55:29.003Z,6.13
2018-04-23T20:57:57.322Z,5.30
2018-04-23T21:00:24.840Z,5.27
2018-04-23T21:02:53.124Z,6.20
2018-04-23T21:05:21.431Z,7.00
2018-04-23T21:07:49.000Z,6.10
2018-04-23T21:10:16.541Z,6.33
2018-04-23T21:12:44.056Z,6.30
2018-04-23T21:15:11.592Z,5.63
2018-04-23T21:17:39.112Z,6.17
2018-04-23T21:20:07.417Z,6.30
2018-04-23T21:22:34.936Z,7.37
2018-04-23T21:25:03.243Z,6.03
2018-04-23T21:27:30.761Z,5.77
2018-04-23T21:29:58.301Z,4.03
2018-04-23T21:32:25.932Z,4.47
2018-04-23T21:34:53.475Z,5.70
2018-04-23T21:37:21.057Z,5.53
2018-04-23T21:39:48.592Z,5.33
2018-04-23T21:42:16.176Z,4.67
2018-04-23T21:44:43.716Z,5.13
2018-04-23T21:47:11.236Z,6.53
2018-04-23T21:49:38.753Z,7.50
2018-04-23T21:52:06.293Z,7.23
2018-04-23T21:54:33.812Z,7.83
2018-04-23T21:57:01.354Z,9.50
2018-04-23T21:59:28.873Z,8.73
2018-04-23T22:01:56.408Z,8.50
2018-04-23T22:04:23.923Z,8.20
2018-04-23T22:06:51.456Z,9.20
2018-04-23T22:09:19.006Z,8.30
2018-04-23T22:11:47.309Z,8.20
2018-04-23T22:14:14.829Z,7.33
2018-04-23T22:16:43.132Z,7.77
2018-04-23T22:19:10.644Z,7.93
2018-04-23T22:21:38.944Z,6.53
2018-04-23T22:24:07.225Z,8.00
2018-04-23T22:26:35.543Z,10.70
2018-04-23T22:29:03.060Z,8.07
2018-04-23T22:31:31.358Z,8.33
2018-04-23T22:33:58.936Z,7.60
2018-04-23T22:36:26.456Z,6.30
2018-04-23T22:38:54.779Z,7.37
2018-04-23T22:41:22.292Z,7.60
2018-04-23T22:43:49.824Z,7.63
2018-04-23T22:46:17.339Z,7.37
2018-04-23T22:48:44.877Z,7.73
2018-04-23T22:51:13.159Z,7.67
2018-04-23T22:53:41.461Z,6.17
2018-04-23T22:56:08.981Z,6.23
2018-04-23T22:58:36.528Z,6.50
2018-04-23T23:01:04.813Z,8.10
2018-04-23T23:03:32.349Z,7.40
2018-04-23T23:05:59.860Z,7.70
2018-04-23T23:08:28.203Z,7.20
2018-04-23T23:10:55.714Z,6.63
2018-04-23T23:13:23.238Z,6.47
2018-04-23T23:15:50.772Z,7.37
2018-04-23T23:18:18.298Z,7.87
2018-04-23T23:20:45.832Z,7.43
2018-04-23T23:23:14.113Z,7.17
2018-04-23T23:25:42.416Z,6.60
2018-04-23T23:28:09.929Z,6.27
2018-04-23T23:30:37.461Z,8.53
2018-04-23T23:33:04.976Z,6.80
2018-04-23T23:35:32.514Z,5.77
2018-04-23T23:38:00.843Z,6.37
2018-04-23T23:40:28.355Z,6.57
2018-04-23T23:42:56.635Z,8.90
2018-04-23T23:45:24.948Z,7.83
2018-04-23T23:47:52.469Z,6.93
2018-04-23T23:50:20.776Z,5.57
2018-04-23T23:52:48.292Z,4.63
2018-04-23T23:55:15.824Z,4.80
2018-04-23T23:57:43.340Z,5.00
